Time;durP1;ratioP1;P1;durP2;ratioP2;P2;SDS_P1;SDS_P2;PMS_P1;PMS_P2;Temp;Humidity;BMP_temperature;BMP_pressure;BME280_temperature;BME280_humidity;BME280_pressure;Samples;Min_cycle;Max_cycle;Signal;HPM_P1;HPM_P2
2023/08/17 00:00:03;;;;;;;8.38;7.50;;;20.80;99.90;;;;;;5045426;28;20433;-71
2023/08/17 00:02:31;;;;;;;8.10;7.40;;;20.70;99.90;;;;;;5044905;28;20434;-72
2023/08/17 00:04:58;;;;;;;8.52;7.75;;;20.60;99.90;;;;;;5043973;28;20466;-72
2023/08/17 00:07:25;;;;;;;8.57;7.78;;;20.60;99.90;;;;;;5043398;28;20440;-73
2023/08/17 00:09:51;;;;;;;8.45;7.75;;;20.60;99.90;;;;;;5047197;28;20413;-71
2023/08/17 00:12:18;;;;;;;9.25;8.35;;;20.60;99.90;;;;;;5046219;28;20441;-73
2023/08/17 00:14:45;;;;;;;8.30;7.60;;;20.60;99.90;;;;;;5045555;28;20419;-72
2023/08/17 00:17:11;;;;;;;8.45;7.65;;;20.60;99.90;;;;;;5044642;28;20443;-71
2023/08/17 00:19:40;;;;;;;7.10;6.50;;;20.60;99.90;;;;;;5044341;28;20935;-71
2023/08/17 00:22:06;;;;;;;7.25;5.78;;;20.60;99.90;;;;;;5044281;28;21026;-72
2023/08/17 00:24:33;;;;;;;8.07;6.60;;;20.60;99.90;;;;;;5045571;28;20427;-71
2023/08/17 00:27:00;;;;;;;9.43;7.28;;;20.70;99.90;;;;;;5044374;28;20446;-71
2023/08/17 00:29:27;;;;;;;10.50;6.20;;;20.70;99.90;;;;;;5044605;28;21047;-72
2023/08/17 00:31:53;;;;;;;6.43;5.82;;;20.60;99.90;;;;;;5048221;28;20433;-70
2023/08/17 00:34:20;;;;;;;6.80;6.18;;;20.60;99.90;;;;;;5046062;28;20798;-73
2023/08/17 00:36:48;;;;;;;7.18;6.47;;;20.60;99.90;;;;;;5045080;28;20419;-73
2023/08/17 00:39:15;;;;;;;6.72;5.90;;;20.60;99.90;;;;;;5043379;28;20470;-73
2023/08/17 00:41:42;;;;;;;6.07;5.57;;;20.60;99.90;;;;;;5044730;28;21223;-72
2023/08/17 00:44:08;;;;;;;7.35;6.43;;;20.60;99.90;;;;;;5045562;28;20799;-73
2023/08/17 00:46:35;;;;;;;6.70;6.10;;;20.60;99.90;;;;;;5045281;28;21053;-70
2023/08/17 00:49:02;;;;;;;6.17;5.57;;;20.50;99.90;;;;;;5043675;28;20437;-72
2023/08/17 00:51:29;;;;;;;7.40;6.70;;;20.50;99.90;;;;;;5044339;28;20427;-71
2023/08/17 00:54:00;;;;;;;7.53;6.83;;;20.50;99.90;;;;;;5044486;28;20457;-71
2023/08/17 00:56:27;;;;;;;7.22;6.53;;;20.40;99.90;;;;;;5044661;28;20429;-71
2023/08/17 00:58:55;;;;;;;6.50;5.90;;;20.40;99.90;;;;;;5045707;28;20413;-72
2023/08/17 01:01:22;;;;;;;7.63;6.93;;;20.40;99.90;;;;;;5044534;28;20433;-72
2023/08/17 01:03:49;;;;;;;6.70;6.10;;;20.40;99.90;;;;;;5044486;28;21031;-71
2023/08/17 01:06:15;;;;;;;6.88;6.30;;;20.30;99.90;;;;;;5045771;28;20438;-71
2023/08/17 01:08:44;;;;;;;7.97;7.05;;;20.30;99.90;;;;;;5045900;28;20772;-70
2023/08/17 01:11:18;;;;;;;7.10;6.40;;;20.30;99.90;;;;;;5044815;28;20438;-72
2023/08/17 01:13:50;;;;;;;7.15;6.55;;;20.30;99.90;;;;;;5054149;28;20422;-71
2023/08/17 01:16:24;;;;;;;6.22;5.72;;;20.30;99.90;;;;;;5049187;28;20438;-73
2023/08/17 01:18:52;;;;;;;8.10;7.03;;;20.30;99.90;;;;;;5063487;28;21534;-70
2023/08/17 01:21:23;;;;;;;7.03;6.32;;;20.30;99.90;;;;;;5065785;28;21102;-72
2023/08/17 01:23:51;;;;;;;7.63;6.93;;;20.30;99.90;;;;;;5070173;28;20513;-71
2023/08/17 01:26:18;;;;;;;7.53;6.93;;;20.30;99.90;;;;;;5069137;28;20443;-71
2023/08/17 01:28:47;;;;;;;7.22;6.50;;;20.20;99.90;;;;;;5059740;28;20438;-73
2023/08/17 01:31:21;;;;;;;7.75;7.05;;;20.20;99.90;;;;;;5046356;28;20459;-71
2023/08/17 01:33:52;;;;;;;6.88;6.28;;;20.10;99.90;;;;;;5044691;28;20446;-71
2023/08/17 01:36:23;;;;;;;6.88;6.18;;;20.10;99.90;;;;;;5044814;28;20710;-70
2023/08/17 01:38:54;;;;;;;7.25;6.55;;;20.00;99.90;;;;;;5044263;28;20435;-71
2023/08/17 01:41:23;;;;;;;6.70;6.20;;;20.00;99.90;;;;;;5043846;28;20869;-72
2023/08/17 01:43:50;;;;;;;6.57;5.97;;;20.10;99.90;;;;;;5043801;28;20841;-72
2023/08/17 01:46:18;;;;;;;6.72;6.10;;;20.10;99.90;;;;;;5046127;28;20442;-73
2023/08/17 01:51:21;;;;;;;6.72;5.50;;;20.10;99.90;;;;;;5039730;28;22223;-72
2023/08/17 01:53:49;;;;;;;6.13;5.40;;;20.10;99.90;;;;;;5047218;28;20427;-72
2023/08/17 01:56:17;;;;;;;6.30;5.70;;;20.10;99.90;;;;;;5048870;28;20515;-72
2023/08/17 01:58:44;;;;;;;5.80;5.30;;;20.10;99.90;;;;;;5046833;28;20865;-72
2023/08/17 02:01:11;;;;;;;4.80;4.40;;;20.10;99.90;;;;;;5043535;28;20564;-72
2023/08/17 02:03:37;;;;;;;5.40;4.90;;;20.00;99.90;;;;;;5048010;28;20435;-71
2023/08/17 02:06:04;;;;;;;5.80;5.30;;;20.10;99.90;;;;;;5045948;28;20435;-71
2023/08/17 02:08:31;;;;;;;5.35;4.95;;;20.10;99.90;;;;;;5046972;28;20425;-71
2023/08/17 02:10:58;;;;;;;6.30;5.70;;;20.00;99.90;;;;;;5044251;28;20441;-71
2023/08/17 02:13:27;;;;;;;6.68;6.07;;;20.00;99.90;;;;;;5047209;28;20721;-71
2023/08/17 02:15:54;;;;;;;5.00;4.60;;;20.00;99.90;;;;;;5045780;28;20440;-71
2023/08/17 02:18:20;;;;;;;5.97;5.22;;;20.00;99.90;;;;;;5045971;28;20493;-71
2023/08/17 02:20:47;;;;;;;5.63;5.20;;;20.00;99.90;;;;;;5046599;28;20413;-72
2023/08/17 02:23:14;;;;;;;5.90;5.40;;;20.00;99.90;;;;;;5046764;28;21001;-72
2023/08/17 02:25:41;;;;;;;5.85;5.35;;;20.00;99.90;;;;;;5045762;28;20418;-71
2023/08/17 02:28:08;;;;;;;6.07;5.47;;;20.00;99.90;;;;;;5045520;28;20920;-71
2023/08/17 02:30:36;;;;;;;6.63;5.32;;;19.90;99.90;;;;;;5044709;28;20429;-71
2023/08/17 02:33:03;;;;;;;5.20;4.80;;;20.00;99.90;;;;;;5044209;28;20435;-71
2023/08/17 02:35:30;;;;;;;5.60;5.20;;;19.90;99.90;;;;;;5045093;28;21166;-71
2023/08/17 02:37:57;;;;;;;6.13;5.53;;;19.90;99.90;;;;;;5042958;28;20438;-71
2023/08/17 02:40:24;;;;;;;6.00;5.50;;;19.90;99.90;;;;;;5045067;28;20452;-71
2023/08/17 02:42:51;;;;;;;6.00;5.40;;;19.90;99.90;;;;;;5045811;28;20521;-71
2023/08/17 02:45:17;;;;;;;6.20;5.60;;;19.90;99.90;;;;;;5046016;28;20983;-71
2023/08/17 02:47:45;;;;;;;6.00;5.50;;;19.90;99.90;;;;;;5046093;28;20428;-70
2023/08/17 02:50:12;;;;;;;6.78;6.20;;;19.80;99.90;;;;;;5046446;28;20423;-71
2023/08/17 02:52:39;;;;;;;7.40;5.90;;;19.80;99.90;;;;;;5043351;28;20896;-71
2023/08/17 02:55:06;;;;;;;6.28;5.68;;;19.70;99.90;;;;;;5044072;28;20434;-71
2023/08/17 02:57:33;;;;;;;5.90;5.40;;;19.70;99.90;;;;;;5045174;28;20429;-71
2023/08/17 03:00:00;;;;;;;6.90;6.30;;;19.60;99.90;;;;;;5044919;28;20548;-71
2023/08/17 03:02:27;;;;;;;6.17;5.60;;;19.60;99.90;;;;;;5044543;28;20541;-71
2023/08/17 03:04:55;;;;;;;6.55;5.97;;;19.60;99.90;;;;;;5046449;28;20448;-70
2023/08/17 03:07:22;;;;;;;5.72;5.22;;;19.60;99.90;;;;;;5044264;28;20451;-73
2023/08/17 03:09:49;;;;;;;6.38;5.88;;;19.60;99.90;;;;;;5043408;28;20641;-73
2023/08/17 03:12:15;;;;;;;8.40;5.70;;;19.60;99.90;;;;;;5044411;28;20904;-73
2023/08/17 03:14:42;;;;;;;6.47;5.88;;;19.60;99.90;;;;;;5046153;28;20414;-71
2023/08/17 03:17:09;;;;;;;6.82;6.20;;;19.50;99.90;;;;;;5044434;28;20436;-72
2023/08/17 03:19:36;;;;;;;6.50;6.00;;;19.50;99.90;;;;;;5046327;28;20410;-73
2023/08/17 03:22:04;;;;;;;7.03;6.43;;;19.40;99.90;;;;;;5042376;28;20713;-71
2023/08/17 03:24:31;;;;;;;6.43;6.03;;;19.40;99.90;;;;;;5042847;28;20791;-71
2023/08/17 03:26:57;;;;;;;6.50;5.90;;;19.40;99.90;;;;;;5045969;28;20509;-73
2023/08/17 03:29:24;;;;;;;7.43;6.80;;;19.40;99.90;;;;;;5043656;28;20433;-73
2023/08/17 03:31:51;;;;;;;6.90;6.20;;;19.40;99.90;;;;;;5041680;28;20517;-73
2023/08/17 03:34:17;;;;;;;6.73;6.23;;;19.30;99.90;;;;;;5044282;28;20541;-71
2023/08/17 03:36:44;;;;;;;7.57;6.80;;;19.30;99.90;;;;;;5045120;28;20851;-71
2023/08/17 03:39:12;;;;;;;6.95;6.35;;;19.30;99.90;;;;;;5045389;28;20419;-71
2023/08/17 03:41:39;;;;;;;8.70;7.97;;;19.30;99.90;;;;;;5044346;28;20581;-73
2023/08/17 03:44:06;;;;;;;7.05;6.55;;;19.30;99.90;;;;;;5043517;28;20456;-71
2023/08/17 03:46:33;;;;;;;6.40;5.90;;;19.30;99.90;;;;;;5041544;28;20430;-72
2023/08/17 03:49:00;;;;;;;6.70;6.10;;;19.30;99.90;;;;;;5043864;28;20523;-73
2023/08/17 03:51:27;;;;;;;6.23;5.63;;;19.30;99.90;;;;;;5041104;28;20464;-71
2023/08/17 03:53:53;;;;;;;5.95;5.55;;;19.30;99.90;;;;;;5043990;28;20437;-71
2023/08/17 03:56:21;;;;;;;6.10;5.60;;;19.30;99.90;;;;;;5044575;28;20856;-71
2023/08/17 03:58:48;;;;;;;5.70;5.25;;;19.40;99.90;;;;;;5044674;28;20851;-71
2023/08/17 04:01:15;;;;;;;4.80;4.40;;;19.40;99.90;;;;;;5043558;28;20789;-71
2023/08/17 04:03:41;;;;;;;6.40;5.80;;;19.40;99.90;;;;;;5046535;28;20436;-71
2023/08/17 04:06:10;;;;;;;5.65;5.15;;;19.40;99.90;;;;;;5045435;28;21418;-71
2023/08/17 04:08:37;;;;;;;5.40;5.00;;;19.50;99.90;;;;;;5043248;28;20512;-71
2023/08/17 04:11:03;;;;;;;5.60;5.10;;;19.60;99.90;;;;;;5043044;28;20460;-73
2023/08/17 04:13:32;;;;;;;6.78;6.18;;;19.60;99.90;;;;;;5047679;28;20434;-72
2023/08/17 04:15:58;;;;;;;5.30;4.80;;;19.60;99.90;;;;;;5042534;28;22019;-73
2023/08/17 04:18:25;;;;;;;6.20;5.68;;;19.60;99.90;;;;;;5044843;28;21266;-72
2023/08/17 04:20:52;;;;;;;6.25;5.75;;;19.70;99.90;;;;;;5043979;28;20450;-73
2023/08/17 04:23:19;;;;;;;6.30;5.80;;;19.70;99.90;;;;;;5043096;28;20953;-73
2023/08/17 04:25:47;;;;;;;8.23;7.28;;;19.70;99.90;;;;;;5043218;28;20442;-73
2023/08/17 04:28:14;;;;;;;7.28;6.68;;;19.70;99.90;;;;;;5044145;28;20781;-73
2023/08/17 04:30:42;;;;;;;7.00;6.40;;;19.70;99.90;;;;;;5042024;28;20556;-73
2023/08/17 04:33:09;;;;;;;7.00;6.40;;;19.70;99.90;;;;;;5043790;28;21272;-71
2023/08/17 04:35:36;;;;;;;7.40;6.80;;;19.60;99.90;;;;;;5044096;28;20490;-71
2023/08/17 04:38:03;;;;;;;8.02;7.32;;;19.60;99.90;;;;;;5043579;28;20446;-71
2023/08/17 04:40:30;;;;;;;7.10;6.50;;;19.60;99.90;;;;;;5041707;28;20584;-71
2023/08/17 04:42:56;;;;;;;7.20;6.60;;;19.60;99.90;;;;;;5042986;28;20429;-71
2023/08/17 04:45:23;;;;;;;7.40;6.90;;;19.60;99.90;;;;;;5043235;28;20432;-71
2023/08/17 04:47:51;;;;;;;7.40;6.75;;;19.60;99.90;;;;;;5043196;28;20607;-73
2023/08/17 04:50:18;;;;;;;7.10;6.50;;;19.50;99.90;;;;;;5043369;28;20449;-71
2023/08/17 04:52:45;;;;;;;7.40;6.90;;;19.50;99.90;;;;;;5041946;28;20444;-71
2023/08/17 04:55:12;;;;;;;7.10;6.40;;;19.60;99.90;;;;;;5043046;28;20990;-69
2023/08/17 04:57:38;;;;;;;5.30;4.80;;;19.60;99.90;;;;;;5042259;28;20418;-69
2023/08/17 05:00:09;;;;;;;6.10;5.60;;;19.70;99.90;;;;;;5042446;28;20422;-71
2023/08/17 05:02:35;;;;;;;7.68;7.07;;;19.80;99.90;;;;;;5067473;28;20833;-69
2023/08/17 05:05:06;;;;;;;8.27;7.57;;;19.80;99.90;;;;;;5071172;28;20427;-68
2023/08/17 05:07:33;;;;;;;7.95;6.40;;;19.80;99.90;;;;;;5065848;28;20912;-68
2023/08/17 05:10:00;;;;;;;7.20;6.60;;;19.80;99.90;;;;;;5077172;28;20895;-68
2023/08/17 05:12:27;;;;;;;7.03;6.43;;;19.80;99.90;;;;;;5070052;28;20437;-67
2023/08/17 05:14:54;;;;;;;7.28;6.68;;;19.70;99.90;;;;;;5064791;28;20411;-67
2023/08/17 05:17:21;;;;;;;7.00;6.50;;;19.60;99.90;;;;;;5071922;28;20451;-68
2023/08/17 05:19:47;;;;;;;10.57;9.48;;;19.60;99.90;;;;;;5080181;28;20405;-68
2023/08/17 05:22:15;;;;;;;8.10;7.20;;;19.60;99.90;;;;;;5071019;28;20436;-67
2023/08/17 05:24:42;;;;;;;8.00;7.30;;;19.60;99.90;;;;;;5064267;28;20415;-68
2023/08/17 05:27:09;;;;;;;7.50;6.80;;;19.60;99.90;;;;;;5073242;28;20446;-68
2023/08/17 05:29:36;;;;;;;7.03;6.43;;;19.60;99.90;;;;;;5065925;28;20430;-67
2023/08/17 05:32:02;;;;;;;6.80;6.20;;;19.60;99.90;;;;;;5065793;28;20431;-69
2023/08/17 05:34:29;;;;;;;6.95;6.30;;;19.50;99.90;;;;;;5062097;28;20427;-69
2023/08/17 05:36:56;;;;;;;6.70;6.10;;;19.50;99.90;;;;;;5064867;28;20896;-70
2023/08/17 05:39:24;;;;;;;6.50;5.90;;;19.50;99.90;;;;;;5067710;28;20435;-69
2023/08/17 05:41:51;;;;;;;7.35;6.65;;;19.60;99.90;;;;;;5069012;28;20939;-69
2023/08/17 05:44:18;;;;;;;6.05;5.55;;;19.60;99.90;;;;;;5063130;28;20487;-70
2023/08/17 05:46:45;;;;;;;6.65;5.95;;;19.60;99.90;;;;;;5068229;28;20494;-70
2023/08/17 05:49:12;;;;;;;6.00;5.40;;;19.70;99.90;;;;;;5075080;28;20423;-70
2023/08/17 05:51:38;;;;;;;6.05;5.55;;;19.70;99.90;;;;;;5073274;28;20425;-69
2023/08/17 05:54:06;;;;;;;6.67;6.10;;;19.70;99.90;;;;;;5064743;28;20439;-69
2023/08/17 05:56:34;;;;;;;7.20;6.50;;;19.80;99.90;;;;;;5068274;28;20512;-70
2023/08/17 05:59:01;;;;;;;6.45;5.85;;;19.80;99.90;;;;;;5067606;28;20426;-70
2023/08/17 06:01:27;;;;;;;6.90;6.30;;;19.80;99.90;;;;;;5070195;28;20431;-69
2023/08/17 06:03:54;;;;;;;7.10;6.50;;;19.70;99.90;;;;;;5073298;28;20421;-69
2023/08/17 06:06:21;;;;;;;5.93;5.40;;;19.80;99.90;;;;;;5069047;28;20443;-69
2023/08/17 06:08:47;;;;;;;7.18;6.10;;;19.80;99.90;;;;;;5061768;28;20457;-68
2023/08/17 06:11:14;;;;;;;6.60;6.00;;;19.80;99.90;;;;;;5059322;28;20909;-69
2023/08/17 06:13:42;;;;;;;9.02;8.15;;;19.80;99.90;;;;;;5064468;28;20423;-71
2023/08/17 06:16:10;;;;;;;7.70;7.07;;;19.90;99.90;;;;;;5068971;28;20406;-71
2023/08/17 06:18:37;;;;;;;7.13;6.50;;;19.90;99.90;;;;;;5066007;28;20554;-70
2023/08/17 06:21:04;;;;;;;10.00;9.00;;;19.90;99.90;;;;;;5063271;28;20433;-69
2023/08/17 06:23:31;;;;;;;7.55;6.85;;;20.00;99.90;;;;;;5069843;28;20443;-69
2023/08/17 06:25:58;;;;;;;7.15;6.55;;;20.00;99.90;;;;;;5072977;28;20514;-69
2023/08/17 06:28:26;;;;;;;7.05;6.40;;;20.10;99.90;;;;;;5063604;28;20415;-69
2023/08/17 06:30:55;;;;;;;6.50;6.00;;;20.20;99.90;;;;;;5066904;28;20459;-69
2023/08/17 06:33:22;;;;;;;6.05;5.55;;;20.20;99.90;;;;;;5066617;28;20500;-69
2023/08/17 06:35:49;;;;;;;6.10;5.60;;;20.30;99.90;;;;;;5072891;28;20716;-69
2023/08/17 06:38:16;;;;;;;6.40;5.80;;;20.30;99.90;;;;;;5073872;28;20427;-71
2023/08/17 06:40:43;;;;;;;6.43;5.93;;;20.40;99.90;;;;;;5069391;28;20435;-67
2023/08/17 06:43:10;;;;;;;6.85;6.32;;;20.40;99.90;;;;;;5070233;28;20483;-67
2023/08/17 06:45:36;;;;;;;6.85;6.15;;;20.40;99.90;;;;;;5071370;28;20440;-68
2023/08/17 06:48:05;;;;;;;6.95;6.30;;;20.40;99.90;;;;;;5071280;28;20553;-68
2023/08/17 06:50:32;;;;;;;6.55;6.00;;;20.40;99.90;;;;;;5066048;28;20435;-68
2023/08/17 06:52:59;;;;;;;7.40;6.80;;;20.40;99.90;;;;;;5073815;28;20566;-67
2023/08/17 06:55:25;;;;;;;7.32;6.72;;;20.40;99.90;;;;;;5079665;28;20421;-73
2023/08/17 06:57:52;;;;;;;7.93;7.20;;;20.30;99.90;;;;;;5080930;28;20816;-74
2023/08/17 07:00:20;;;;;;;8.30;7.60;;;20.30;99.90;;;;;;5070742;28;20438;-74
2023/08/17 07:02:47;;;;;;;7.53;6.93;;;20.30;99.90;;;;;;5072185;28;20434;-74
2023/08/17 07:05:15;;;;;;;6.70;6.10;;;20.30;99.90;;;;;;5070199;28;20507;-74
2023/08/17 07:07:42;;;;;;;9.30;8.50;;;20.40;99.90;;;;;;5071139;28;20427;-74
2023/08/17 07:10:10;;;;;;;9.40;8.50;;;20.40;99.90;;;;;;5075536;28;20537;-74
2023/08/17 07:12:37;;;;;;;11.00;10.00;;;20.30;99.90;;;;;;5074213;28;20422;-73
2023/08/17 07:15:04;;;;;;;10.30;9.27;;;20.30;99.90;;;;;;5068375;28;20437;-74
2023/08/17 07:17:31;;;;;;;10.00;9.10;;;20.40;99.90;;;;;;5074066;28;20502;-74
2023/08/17 07:19:57;;;;;;;8.80;7.90;;;20.40;99.90;;;;;;5070419;28;20422;-74
2023/08/17 07:22:25;;;;;;;10.30;9.30;;;20.40;99.90;;;;;;5083401;28;20422;-74
2023/08/17 07:24:52;;;;;;;10.05;9.00;;;20.40;99.90;;;;;;5084735;28;20402;-74
2023/08/17 07:27:19;;;;;;;9.90;9.00;;;20.40;99.90;;;;;;5072317;28;20415;-76
2023/08/17 07:29:46;;;;;;;10.13;9.13;;;20.40;99.90;;;;;;5072054;28;20434;-74
2023/08/17 07:32:12;;;;;;;9.50;8.60;;;20.40;99.90;;;;;;5075878;28;20746;-76
2023/08/17 07:34:39;;;;;;;9.05;8.25;;;20.40;99.90;;;;;;5074522;28;20533;-76
2023/08/17 07:37:06;;;;;;;7.95;7.25;;;20.50;99.90;;;;;;5071766;28;20878;-76
2023/08/17 07:39:34;;;;;;;8.75;7.95;;;20.60;99.90;;;;;;5077992;28;20438;-76
2023/08/17 07:42:01;;;;;;;8.30;7.50;;;20.60;99.90;;;;;;5075369;28;20425;-76
2023/08/17 07:44:31;;;;;;;9.45;8.50;;;20.70;99.90;;;;;;5068129;28;20418;-74
2023/08/17 07:46:58;;;;;;;8.63;7.72;;;20.70;99.90;;;;;;5068358;28;20424;-75
2023/08/17 07:51:53;;;;;;;9.57;7.53;;;20.90;99.90;;;;;;5055909;28;20808;-73
2023/08/17 07:54:20;;;;;;;8.35;7.53;;;20.90;99.90;;;;;;5066601;28;20436;-71
2023/08/17 07:56:48;;;;;;;7.90;7.10;;;21.00;99.90;;;;;;5069397;28;20574;-75
2023/08/17 07:59:15;;;;;;;9.40;8.50;;;21.10;99.90;;;;;;5067866;28;20428;-73
2023/08/17 08:01:42;;;;;;;9.30;8.40;;;21.10;99.90;;;;;;5062218;28;20568;-72
2023/08/17 08:04:08;;;;;;;11.45;9.50;;;21.10;99.90;;;;;;5059306;28;20516;-75
2023/08/17 08:06:35;;;;;;;9.93;9.03;;;20.90;99.90;;;;;;5062603;28;20794;-73
2023/08/17 08:09:02;;;;;;;10.27;9.18;;;20.90;99.90;;;;;;5064883;28;20435;-76
2023/08/17 08:11:30;;;;;;;11.07;10.00;;;20.80;99.90;;;;;;5060408;28;20432;-71
2023/08/17 08:13:58;;;;;;;11.60;9.98;;;20.70;99.90;;;;;;5059444;28;20519;-72
2023/08/17 08:16:25;;;;;;;10.27;8.53;;;20.70;99.90;;;;;;5059908;28;20967;-72
2023/08/17 08:18:52;;;;;;;9.85;8.85;;;20.70;99.90;;;;;;5056325;28;20436;-74
2023/08/17 08:21:18;;;;;;;10.18;9.18;;;20.80;99.90;;;;;;5064884;28;20442;-73
2023/08/17 08:23:45;;;;;;;9.95;8.95;;;20.80;99.90;;;;;;5057814;28;20424;-73
2023/08/17 08:26:12;;;;;;;9.40;8.40;;;20.80;99.90;;;;;;5063197;28;20454;-72
2023/08/17 08:28:38;;;;;;;10.35;9.15;;;20.80;99.90;;;;;;5067196;28;20431;-72
2023/08/17 08:31:07;;;;;;;11.02;9.88;;;20.90;99.90;;;;;;5060250;28;21206;-73
2023/08/17 08:33:33;;;;;;;10.40;9.40;;;21.00;99.90;;;;;;5065892;28;20427;-73
2023/08/17 08:36:01;;;;;;;11.32;10.23;;;21.00;99.90;;;;;;5064293;28;20436;-75
2023/08/17 08:38:29;;;;;;;12.65;10.00;;;21.10;99.90;;;;;;5062855;28;20485;-74
2023/08/17 08:40:55;;;;;;;12.07;10.98;;;21.10;99.90;;;;;;5050969;28;20835;-74
2023/08/17 08:43:22;;;;;;;10.80;9.70;;;21.20;99.90;;;;;;5057056;28;20428;-72
2023/08/17 08:45:51;;;;;;;10.40;9.30;;;21.30;99.90;;;;;;5057451;28;20427;-73
2023/08/17 08:48:21;;;;;;;10.07;9.07;;;21.40;99.90;;;;;;5061651;28;20429;-72
2023/08/17 08:50:52;;;;;;;10.50;9.45;;;21.40;99.90;;;;;;5056124;28;20696;-76
2023/08/17 08:53:25;;;;;;;11.90;10.70;;;21.40;99.90;;;;;;5065414;28;20427;-73
2023/08/17 08:55:58;;;;;;;12.23;10.18;;;21.40;99.90;;;;;;5066829;28;20769;-74
2023/08/17 08:58:26;;;;;;;10.67;9.57;;;21.30;99.90;;;;;;5065160;28;20448;-74
2023/08/17 09:00:53;;;;;;;12.00;10.70;;;21.30;99.90;;;;;;5059969;28;20439;-74
2023/08/17 09:03:22;;;;;;;12.65;10.75;;;21.20;99.90;;;;;;5054693;28;20444;-74
2023/08/17 09:05:50;;;;;;;12.38;10.00;;;21.20;99.90;;;;;;5064974;28;21013;-73
2023/08/17 09:08:21;;;;;;;12.07;10.60;;;21.20;99.90;;;;;;5059216;28;20438;-73
2023/08/17 09:10:48;;;;;;;13.63;10.40;;;21.20;99.90;;;;;;5065241;28;20435;-73
2023/08/17 09:13:15;;;;;;;10.57;9.57;;;21.30;99.90;;;;;;5060397;28;20738;-75
2023/08/17 09:15:42;;;;;;;10.37;9.47;;;21.30;99.90;;;;;;5066211;28;20522;-72
2023/08/17 09:18:09;;;;;;;11.23;9.38;;;21.40;99.90;;;;;;5065507;28;20421;-75
2023/08/17 09:20:39;;;;;;;10.50;9.40;;;21.40;99.90;;;;;;5064629;28;20436;-74
2023/08/17 09:23:11;;;;;;;11.20;10.07;;;21.50;99.90;;;;;;5063771;28;20492;-74
2023/08/17 09:25:39;;;;;;;12.23;10.60;;;21.50;99.90;;;;;;5063755;28;20412;-74
2023/08/17 09:28:09;;;;;;;11.93;10.73;;;21.60;99.90;;;;;;5060119;28;21711;-74
2023/08/17 09:30:53;;;;;;;10.80;9.75;;;21.70;99.90;;;;;;5055377;28;20413;-73
2023/08/17 09:33:21;;;;;;;11.55;9.85;;;21.70;99.90;;;;;;5063654;28;20435;-73
2023/08/17 09:35:50;;;;;;;10.93;9.47;;;21.70;99.90;;;;;;5060766;28;20434;-72
2023/08/17 09:38:16;;;;;;;10.95;9.68;;;21.80;99.90;;;;;;5059945;28;20554;-74
2023/08/17 09:40:44;;;;;;;11.25;10.07;;;21.90;99.90;;;;;;5058314;28;20442;-75
2023/08/17 09:43:11;;;;;;;12.32;11.02;;;21.90;99.90;;;;;;5062342;28;20890;-74
2023/08/17 09:45:39;;;;;;;12.40;10.82;;;22.00;99.90;;;;;;5081992;28;20416;-70
2023/08/17 09:48:08;;;;;;;11.98;10.82;;;22.10;99.90;;;;;;5085829;28;20473;-73
2023/08/17 09:50:35;;;;;;;12.70;11.40;;;22.10;99.90;;;;;;5072553;28;20414;-71
2023/08/17 09:53:04;;;;;;;13.50;12.23;;;22.10;99.90;;;;;;5077331;28;20468;-73
2023/08/17 09:55:32;;;;;;;13.30;12.00;;;22.20;99.90;;;;;;5074320;28;20925;-72
2023/08/17 09:58:00;;;;;;;13.57;12.18;;;22.30;99.90;;;;;;5068528;28;20425;-72
2023/08/17 10:00:29;;;;;;;15.20;13.70;;;22.40;99.90;;;;;;5062680;28;20415;-75
2023/08/17 10:03:01;;;;;;;13.82;12.52;;;22.40;99.90;;;;;;5063067;28;20442;-74
2023/08/17 10:05:31;;;;;;;13.32;12.07;;;22.50;99.90;;;;;;5057607;28;20431;-73
2023/08/17 10:08:00;;;;;;;13.73;12.40;;;22.60;99.90;;;;;;5067977;28;20423;-74
2023/08/17 10:10:30;;;;;;;13.10;12.00;;;22.60;99.90;;;;;;5069441;28;20447;-74
2023/08/17 10:13:06;;;;;;;12.80;11.75;;;22.70;99.90;;;;;;5068562;28;20917;-74
2023/08/17 10:15:37;;;;;;;13.00;11.80;;;22.80;99.50;;;;;;5067973;28;20941;-73
2023/08/17 10:18:17;;;;;;;13.27;12.05;;;22.80;99.00;;;;;;5070149;28;20414;-73
2023/08/17 10:21:04;;;;;;;12.00;11.00;;;22.80;99.10;;;;;;5067571;28;20431;-73
2023/08/17 10:23:32;;;;;;;12.70;11.60;;;22.70;98.90;;;;;;5063305;28;20435;-72
2023/08/17 10:26:02;;;;;;;12.90;11.70;;;22.70;99.10;;;;;;5063580;28;20431;-75
2023/08/17 10:28:31;;;;;;;14.35;13.15;;;22.70;99.20;;;;;;5067975;28;20417;-75
2023/08/17 10:30:59;;;;;;;13.93;12.82;;;22.80;98.90;;;;;;5068038;28;20430;-74
2023/08/17 10:33:26;;;;;;;12.57;11.57;;;22.80;98.90;;;;;;5069211;28;20427;-76
2023/08/17 10:35:53;;;;;;;12.50;11.50;;;22.80;99.20;;;;;;5069462;28;20424;-76
2023/08/17 10:38:20;;;;;;;12.70;11.40;;;22.90;99.60;;;;;;5069648;28;20427;-76
2023/08/17 10:41:07;;;;;;;11.30;10.30;;;22.90;98.90;;;;;;5068582;28;20439;-75
2023/08/17 10:43:35;;;;;;;11.38;10.48;;;22.90;98.60;;;;;;5060581;28;20412;-76
2023/08/17 10:46:16;;;;;;;10.77;9.88;;;23.00;98.40;;;;;;5065296;28;20432;-76
2023/08/17 10:48:45;;;;;;;11.68;10.68;;;23.10;97.60;;;;;;5066989;28;20465;-76
2023/08/17 10:51:13;;;;;;;10.95;10.05;;;23.10;97.70;;;;;;5070092;28;20416;-76
2023/08/17 10:53:43;;;;;;;11.23;10.23;;;23.20;97.80;;;;;;5062997;28;20530;-77
2023/08/17 10:56:13;;;;;;;10.60;9.63;;;23.20;97.50;;;;;;5056495;28;20436;-77
2023/08/17 10:58:43;;;;;;;9.60;8.80;;;23.10;97.80;;;;;;5069067;28;20431;-77
2023/08/17 11:01:10;;;;;;;10.20;9.30;;;23.00;97.50;;;;;;5061925;28;20423;-76
2023/08/17 11:03:37;;;;;;;11.68;10.57;;;23.00;97.90;;;;;;5068033;28;20431;-75
2023/08/17 11:06:18;;;;;;;10.77;9.77;;;22.90;98.10;;;;;;5067965;28;20449;-75
2023/08/17 11:08:56;;;;;;;10.50;9.60;;;22.80;98.20;;;;;;5069982;28;20890;-76
2023/08/17 11:11:24;;;;;;;9.65;8.77;;;22.80;98.00;;;;;;5076188;28;20403;-75
2023/08/17 11:13:53;;;;;;;10.77;9.88;;;22.80;98.50;;;;;;5067417;28;20444;-76
2023/08/17 11:16:20;;;;;;;10.45;9.55;;;22.90;98.50;;;;;;5066436;28;20751;-77
2023/08/17 11:18:47;;;;;;;10.17;9.27;;;22.90;98.10;;;;;;5063087;28;20428;-74
2023/08/17 11:21:15;;;;;;;10.75;9.85;;;22.90;97.70;;;;;;5069950;28;20458;-77
2023/08/17 11:23:42;;;;;;;10.25;9.25;;;22.90;98.40;;;;;;5066039;28;20429;-76
2023/08/17 11:26:09;;;;;;;11.27;10.27;;;22.90;98.10;;;;;;5073389;28;20446;-76
2023/08/17 11:28:38;;;;;;;9.60;8.75;;;23.00;97.80;;;;;;5069395;28;21024;-76
2023/08/17 11:31:07;;;;;;;9.35;8.45;;;23.20;98.30;;;;;;5068893;28;20511;-77
2023/08/17 11:33:35;;;;;;;9.20;8.50;;;23.60;97.10;;;;;;5061543;28;20424;-76
2023/08/17 11:36:03;;;;;;;9.30;8.30;;;24.10;95.70;;;;;;5062690;28;20433;-77
2023/08/17 11:38:31;;;;;;;8.38;7.68;;;24.40;94.60;;;;;;5062443;28;20435;-75
2023/08/17 11:40:59;;;;;;;8.20;7.50;;;24.60;94.40;;;;;;5056668;28;20502;-75
2023/08/17 11:43:26;;;;;;;8.40;7.70;;;24.80;95.30;;;;;;5059958;28;20423;-76
2023/08/17 11:45:52;;;;;;;9.10;8.30;;;24.80;94.20;;;;;;5061195;28;20804;-76
2023/08/17 11:48:21;;;;;;;9.55;8.75;;;24.90;94.70;;;;;;5066477;28;20430;-76
2023/08/17 11:50:48;;;;;;;9.07;8.30;;;24.80;93.30;;;;;;5057968;28;20411;-76
2023/08/17 11:53:15;;;;;;;10.40;9.60;;;24.80;93.50;;;;;;5069000;28;20514;-76
2023/08/17 11:55:42;;;;;;;10.80;9.90;;;24.80;93.70;;;;;;5059878;28;20786;-75
2023/08/17 11:58:09;;;;;;;10.07;9.15;;;24.70;92.50;;;;;;5058253;28;20956;-75
2023/08/17 12:00:37;;;;;;;9.88;9.07;;;24.60;92.70;;;;;;5057897;28;20901;-76
2023/08/17 12:03:05;;;;;;;9.60;8.70;;;24.50;93.10;;;;;;5060965;28;20923;-77
2023/08/17 12:05:34;;;;;;;8.88;8.18;;;24.50;94.00;;;;;;5058977;28;20434;-77
2023/08/17 12:08:01;;;;;;;9.10;8.30;;;24.50;94.10;;;;;;5059393;28;21014;-77
2023/08/17 12:10:29;;;;;;;9.60;8.70;;;24.50;93.30;;;;;;5067630;28;20436;-78
2023/08/17 12:12:59;;;;;;;8.65;7.95;;;24.50;92.00;;;;;;5064442;28;20924;-76
2023/08/17 12:15:31;;;;;;;8.10;7.25;;;24.50;93.00;;;;;;5058360;28;20437;-79
2023/08/17 12:18:01;;;;;;;7.47;6.88;;;24.60;92.70;;;;;;5066030;28;20431;-77
2023/08/17 12:20:28;;;;;;;8.18;7.47;;;24.80;92.30;;;;;;5060009;28;20435;-77
2023/08/17 12:22:58;;;;;;;7.32;6.80;;;25.00;92.90;;;;;;5055008;28;21073;-75
2023/08/17 12:25:25;;;;;;;7.38;6.78;;;25.20;92.40;;;;;;5052345;28;20425;-77
2023/08/17 12:27:52;;;;;;;7.20;6.70;;;25.20;92.70;;;;;;5060630;28;20419;-75
2023/08/17 12:30:27;;;;;;;8.23;7.50;;;25.30;91.70;;;;;;5060277;28;20901;-76
2023/08/17 12:32:54;;;;;;;7.50;6.90;;;25.30;91.80;;;;;;5058370;28;20438;-76
2023/08/17 12:35:23;;;;;;;7.53;6.93;;;25.30;90.30;;;;;;5055741;28;20467;-78
2023/08/17 12:37:50;;;;;;;7.30;6.60;;;25.20;90.00;;;;;;5051319;28;20428;-77
2023/08/17 12:40:18;;;;;;;8.00;7.20;;;25.30;91.00;;;;;;5058334;28;20442;-77
2023/08/17 12:42:45;;;;;;;9.18;8.48;;;25.30;91.10;;;;;;5057255;28;20435;-78
2023/08/17 12:45:12;;;;;;;9.38;8.57;;;25.20;91.30;;;;;;5061486;28;20438;-77
2023/08/17 12:47:38;;;;;;;9.65;8.95;;;25.00;90.40;;;;;;5051848;28;20427;-77
2023/08/17 12:50:06;;;;;;;10.52;9.63;;;24.80;90.10;;;;;;5057366;28;20899;-78